createdAt,value
2019-06-08T00:00:36.937Z,14.09
2019-06-08T00:04:41.837Z,14.04
2019-06-08T00:08:46.741Z,13.99
2019-06-08T00:12:51.636Z,13.98
2019-06-08T00:16:56.528Z,13.89
2019-06-08T00:21:01.440Z,13.89
2019-06-08T00:25:06.578Z,13.91
2019-06-08T00:29:11.516Z,13.90
2019-06-08T00:33:17.058Z,13.91
2019-06-08T00:37:22.914Z,13.89
2019-06-08T00:41:27.837Z,13.84
2019-06-08T00:45:32.739Z,13.77
2019-06-08T00:49:37.635Z,13.70
2019-06-08T00:53:42.798Z,13.67
2019-06-08T00:57:47.867Z,13.60
2019-06-08T01:01:52.764Z,13.52
2019-06-08T01:05:57.660Z,13.46
2019-06-08T01:10:02.561Z,13.42
2019-06-08T01:14:07.451Z,13.45
2019-06-08T01:18:12.378Z,13.54
2019-06-08T01:22:17.253Z,13.60
2019-06-08T01:26:22.366Z,13.61
2019-06-08T01:30:28.412Z,13.61
2019-06-08T01:34:33.496Z,13.59
2019-06-08T01:38:38.393Z,13.58
2019-06-08T01:42:43.291Z,13.62
2019-06-08T01:46:48.300Z,13.64
2019-06-08T01:50:53.741Z,13.66
2019-06-08T01:54:58.633Z,13.74
2019-06-08T01:59:03.534Z,13.79
2019-06-08T02:03:09.513Z,13.80
2019-06-08T02:07:14.406Z,13.85
2019-06-08T02:11:19.305Z,13.88
2019-06-08T02:15:25.260Z,13.93
2019-06-08T02:19:30.577Z,13.95
2019-06-08T02:23:35.480Z,13.95
2019-06-08T02:27:40.374Z,13.96
2019-06-08T02:31:47.964Z,14.10
2019-06-08T02:35:51.935Z,14.12
2019-06-08T02:39:56.837Z,14.12
2019-06-08T02:44:01.733Z,14.16
2019-06-08T02:48:06.707Z,14.24
2019-06-08T02:52:11.683Z,14.29
2019-06-08T02:56:17.940Z,14.29
2019-06-08T03:00:22.979Z,14.37
2019-06-08T03:04:32.262Z,14.36
2019-06-08T03:08:39.223Z,14.39
2019-06-08T03:12:45.919Z,14.39
2019-06-08T03:16:50.807Z,14.41
2019-06-08T03:20:55.709Z,14.42
2019-06-08T03:25:00.606Z,14.36
2019-06-08T03:29:05.511Z,14.28
2019-06-08T03:33:10.409Z,14.20
2019-06-08T03:37:15.297Z,14.23
2019-06-08T03:41:20.204Z,14.26
2019-06-08T03:45:25.103Z,14.20
2019-06-08T03:49:42.924Z,14.09
2019-06-08T03:53:37.969Z,14.01
2019-06-08T03:57:44.063Z,14.08
2019-06-08T04:01:50.001Z,14.92
2019-06-08T04:05:54.936Z,14.81
2019-06-08T04:09:59.840Z,14.83
2019-06-08T04:14:05.178Z,14.71
2019-06-08T04:18:10.071Z,14.69
2019-06-08T04:22:15.033Z,14.59
2019-06-08T04:26:19.961Z,14.62
2019-06-08T04:30:24.972Z,14.87
2019-06-08T04:34:29.870Z,14.84
2019-06-08T04:38:34.759Z,15.26
2019-06-08T04:42:41.570Z,17.46
2019-06-08T04:46:47.865Z,16.28
2019-06-08T04:50:52.886Z,16.28
2019-06-08T04:54:57.756Z,18.71
2019-06-08T04:59:02.713Z,19.93
2019-06-08T05:03:07.618Z,18.42
2019-06-08T05:07:12.506Z,18.84
2019-06-08T05:11:17.402Z,19.71
2019-06-08T05:15:22.308Z,21.07
2019-06-08T05:19:27.189Z,23.67
2019-06-08T05:23:32.083Z,25.13
2019-06-08T05:27:36.986Z,25.53
2019-06-08T05:31:43.441Z,26.72
2019-06-08T05:35:49.676Z,26.89
2019-06-08T05:39:54.735Z,27.09
2019-06-08T05:43:59.636Z,28.24
2019-06-08T05:48:04.604Z,28.91
2019-06-08T05:52:09.501Z,29.42
2019-06-08T05:56:14.409Z,30.14
2019-06-08T06:00:19.438Z,27.34
2019-06-08T06:04:24.341Z,23.26
2019-06-08T06:08:29.229Z,23.32
2019-06-08T06:12:34.128Z,20.41
2019-06-08T06:16:39.044Z,18.65
2019-06-08T06:20:45.258Z,19.88
2019-06-08T06:24:50.301Z,19.00
2019-06-08T06:28:55.196Z,19.58
2019-06-08T06:33:00.105Z,18.42
2019-06-08T06:37:05.074Z,17.93
2019-06-08T06:41:09.971Z,17.44
2019-06-08T06:45:15.196Z,16.90
2019-06-08T06:49:20.101Z,16.72
2019-06-08T06:53:25.011Z,16.69
2019-06-08T06:57:29.895Z,16.66
2019-06-08T07:01:34.793Z,16.62
2019-06-08T07:05:39.695Z,16.65
2019-06-08T07:09:44.585Z,17.20
2019-06-08T07:13:50.806Z,17.61
2019-06-08T07:17:56.809Z,17.67
2019-06-08T07:22:02.845Z,17.74
2019-06-08T07:26:07.746Z,18.21
2019-06-08T07:30:13.015Z,18.63
2019-06-08T07:34:17.965Z,18.13
2019-06-08T07:38:22.868Z,17.64
2019-06-08T07:42:27.761Z,17.90
2019-06-08T07:46:32.648Z,18.20
2019-06-08T07:50:37.549Z,18.11
2019-06-08T07:54:42.462Z,17.91
2019-06-08T07:58:49.596Z,18.01
2019-06-08T08:02:56.202Z,18.06
2019-06-08T08:07:01.120Z,18.09
2019-06-08T08:11:06.015Z,17.96
2019-06-08T08:15:11.551Z,17.81
2019-06-08T08:19:16.455Z,17.78
2019-06-08T08:23:21.356Z,17.47
2019-06-08T08:27:28.052Z,17.27
2019-06-08T08:31:32.844Z,17.44
2019-06-08T08:35:38.082Z,17.28
2019-06-08T08:39:43.229Z,17.24
2019-06-08T08:43:50.141Z,17.27
2019-06-08T08:48:10.373Z,17.04
2019-06-08T08:52:01.812Z,16.99
2019-06-08T08:56:07.322Z,17.05
2019-06-08T09:00:13.233Z,17.42
2019-06-08T09:04:18.608Z,17.96
2019-06-08T09:08:23.621Z,18.05
2019-06-08T09:12:28.545Z,18.26
2019-06-08T09:16:33.431Z,18.22
2019-06-08T09:20:38.330Z,18.26
2019-06-08T09:24:43.247Z,18.24
2019-06-08T09:28:48.124Z,18.36
2019-06-08T09:32:54.332Z,18.37
2019-06-08T09:37:01.361Z,18.08
2019-06-08T09:41:08.784Z,18.02
2019-06-08T09:45:12.964Z,18.15
2019-06-08T09:49:18.741Z,18.15
2019-06-08T09:53:34.159Z,18.07
2019-06-08T09:57:30.545Z,18.09
2019-06-08T10:01:35.446Z,18.34
2019-06-08T10:05:40.336Z,18.48
2019-06-08T10:09:47.382Z,18.70
2019-06-08T10:13:51.838Z,18.80
2019-06-08T10:17:56.915Z,18.71
2019-06-08T10:22:03.047Z,18.47
2019-06-08T10:26:07.960Z,18.47
2019-06-08T10:30:13.303Z,18.29
2019-06-08T10:34:18.193Z,18.72
2019-06-08T10:38:23.094Z,19.19
2019-06-08T10:42:27.997Z,19.22
2019-06-08T10:46:32.896Z,19.05
2019-06-08T10:50:37.792Z,18.73
2019-06-08T10:54:42.697Z,18.87
2019-06-08T10:58:49.699Z,19.52
2019-06-08T11:02:54.183Z,19.74
2019-06-08T11:07:04.292Z,20.08
2019-06-08T11:11:11.541Z,20.15
2019-06-08T11:15:12.593Z,20.26
2019-06-08T11:19:18.701Z,20.39
2019-06-08T11:23:23.705Z,20.50
2019-06-08T11:27:28.699Z,20.43
2019-06-08T11:31:33.582Z,20.51
2019-06-08T11:35:39.233Z,20.56
2019-06-08T11:39:44.138Z,20.52
2019-06-08T11:43:49.030Z,20.36
2019-06-08T11:47:53.939Z,19.99
2019-06-08T11:52:00.365Z,20.02
2019-06-08T11:56:07.238Z,20.58
2019-06-08T12:00:26.772Z,20.97
2019-06-08T12:04:21.832Z,21.02
2019-06-08T12:08:28.466Z,20.88
2019-06-08T12:12:33.336Z,20.98
2019-06-08T12:16:38.234Z,21.09
2019-06-08T12:20:43.135Z,21.32
2019-06-08T12:24:48.037Z,21.46
2019-06-08T12:28:52.935Z,21.27
2019-06-08T12:32:58.230Z,21.45
2019-06-08T12:37:03.121Z,21.71
2019-06-08T12:41:09.617Z,21.71
2019-06-08T12:45:15.465Z,21.87
2019-06-08T12:49:20.587Z,21.98
2019-06-08T12:53:25.485Z,22.13
2019-06-08T12:57:30.419Z,22.24
2019-06-08T13:01:35.298Z,21.99
2019-06-08T13:05:40.207Z,21.90
2019-06-08T13:09:45.112Z,22.03
2019-06-08T13:13:50.022Z,22.16
2019-06-08T13:17:54.959Z,22.35
2019-06-08T13:21:59.842Z,22.47
2019-06-08T13:26:04.874Z,22.47
2019-06-08T13:30:11.547Z,22.58
2019-06-08T13:34:20.655Z,22.71
2019-06-08T13:38:23.451Z,22.84
2019-06-08T13:42:29.413Z,22.60
2019-06-08T13:46:34.339Z,22.45
2019-06-08T13:50:39.244Z,22.35
2019-06-08T13:54:44.170Z,22.33
2019-06-08T13:58:49.070Z,22.35
2019-06-08T14:02:53.955Z,22.36
2019-06-08T14:06:58.879Z,22.25
2019-06-08T14:11:03.779Z,22.16
2019-06-08T14:15:08.937Z,22.31
2019-06-08T14:19:13.826Z,22.35
2019-06-08T14:23:21.256Z,22.34
2019-06-08T14:27:25.520Z,22.46
2019-06-08T14:31:32.160Z,22.42
2019-06-08T14:35:37.198Z,22.28
2019-06-08T14:39:42.104Z,22.14
2019-06-08T14:43:48.263Z,21.96
2019-06-08T14:47:54.571Z,21.90
2019-06-08T14:51:59.473Z,22.13
2019-06-08T14:56:08.488Z,22.33
2019-06-08T15:00:12.238Z,22.34
2019-06-08T15:04:20.267Z,22.18
2019-06-08T15:08:23.976Z,22.07
2019-06-08T15:12:31.339Z,22.15
2019-06-08T15:16:35.488Z,22.34
2019-06-08T15:20:40.390Z,22.33
2019-06-08T15:24:45.288Z,22.37
2019-06-08T15:28:50.754Z,22.47
2019-06-08T15:32:55.661Z,22.52
2019-06-08T15:37:00.562Z,22.51
2019-06-08T15:41:07.685Z,22.52
2019-06-08T15:45:12.560Z,22.61
2019-06-08T15:49:18.629Z,22.69
2019-06-08T15:53:24.345Z,22.75
2019-06-08T15:57:33.074Z,22.66
2019-06-08T16:01:36.967Z,22.45
2019-06-08T16:05:41.792Z,22.25
2019-06-08T16:09:46.687Z,22.16
2019-06-08T16:13:52.657Z,22.16
2019-06-08T16:17:58.629Z,22.12
2019-06-08T16:22:03.601Z,22.02
2019-06-08T16:26:08.491Z,21.93
2019-06-08T16:30:13.856Z,21.93
2019-06-08T16:34:18.758Z,21.93
2019-06-08T16:38:23.655Z,21.96
2019-06-08T16:42:28.556Z,22.06
2019-06-08T16:46:34.812Z,22.09
2019-06-08T16:50:40.700Z,21.97
2019-06-08T16:54:45.599Z,21.94
2019-06-08T16:58:50.505Z,21.92
2019-06-08T17:02:55.414Z,21.71
2019-06-08T17:07:01.375Z,21.37
2019-06-08T17:11:06.717Z,21.31
2019-06-08T17:15:12.440Z,21.39
2019-06-08T17:19:17.370Z,21.41
2019-06-08T17:23:22.267Z,21.26
2019-06-08T17:27:27.383Z,21.10
2019-06-08T17:31:33.005Z,20.94
2019-06-08T17:35:37.960Z,20.75
2019-06-08T17:39:42.898Z,20.56
2019-06-08T17:43:47.795Z,20.44
2019-06-08T17:47:52.678Z,20.40
2019-06-08T17:51:57.598Z,20.33
2019-06-08T17:56:02.497Z,20.33
2019-06-08T18:00:08.846Z,20.31
2019-06-08T18:04:14.374Z,20.17
2019-06-08T18:08:19.341Z,20.02
2019-06-08T18:12:24.238Z,19.85
2019-06-08T18:16:29.303Z,19.73
2019-06-08T18:20:34.322Z,19.62
2019-06-08T18:24:40.869Z,19.57
2019-06-08T18:28:48.345Z,19.52
2019-06-08T18:32:52.376Z,19.53
2019-06-08T18:36:57.960Z,19.46
2019-06-08T18:41:02.957Z,19.36
2019-06-08T18:45:08.193Z,19.21
2019-06-08T18:49:13.076Z,19.09
2019-06-08T18:53:19.211Z,18.99
2019-06-08T18:57:27.423Z,18.87
2019-06-08T19:01:31.735Z,18.69
2019-06-08T19:05:40.203Z,18.51
2019-06-08T19:09:46.012Z,18.30
2019-06-08T19:13:52.621Z,18.16
2019-06-08T19:17:57.829Z,18.00
2019-06-08T19:22:03.870Z,17.92
2019-06-08T19:26:09.842Z,17.80
2019-06-08T19:30:14.981Z,17.69
2019-06-08T19:34:19.873Z,17.58
2019-06-08T19:38:24.767Z,17.44
2019-06-08T19:42:39.147Z,17.26
2019-06-08T19:46:36.268Z,17.12
2019-06-08T19:50:41.696Z,16.98
2019-06-08T19:54:52.459Z,16.84
2019-06-08T19:59:01.699Z,16.74
2019-06-08T20:03:00.818Z,16.62
2019-06-08T20:07:08.474Z,16.54
2019-06-08T20:11:12.320Z,16.51
2019-06-08T20:15:18.382Z,16.40
2019-06-08T20:19:23.454Z,16.24
2019-06-08T20:23:28.348Z,16.15
2019-06-08T20:27:33.245Z,16.06
2019-06-08T20:31:38.982Z,15.94
2019-06-08T20:35:43.925Z,15.69
2019-06-08T20:40:04.266Z,15.53
2019-06-08T20:43:57.783Z,15.27
2019-06-08T20:48:02.024Z,15.13
2019-06-08T20:52:08.603Z,14.97
2019-06-08T20:56:13.593Z,14.90
2019-06-08T21:00:18.816Z,14.94
2019-06-08T21:04:23.724Z,14.85
2019-06-08T21:08:28.623Z,14.60
2019-06-08T21:12:33.520Z,14.60
2019-06-08T21:16:38.431Z,14.52
2019-06-08T21:20:43.305Z,14.47
2019-06-08T21:24:51.793Z,14.33
2019-06-08T21:28:56.630Z,14.21
2019-06-08T21:33:01.385Z,14.13
2019-06-08T21:37:06.276Z,14.04
2019-06-08T21:41:11.167Z,13.85
2019-06-08T21:45:18.736Z,13.57
2019-06-08T21:49:22.729Z,13.58
2019-06-08T21:53:27.669Z,13.64
2019-06-08T21:57:32.514Z,13.72
2019-06-08T22:01:37.816Z,13.75
2019-06-08T22:05:42.723Z,13.68
2019-06-08T22:09:48.096Z,13.46
2019-06-08T22:13:53.044Z,13.34
2019-06-08T22:18:00.161Z,13.17
2019-06-08T22:22:04.622Z,12.98
2019-06-08T22:26:09.519Z,12.70
2019-06-08T22:30:32.413Z,12.51
2019-06-08T22:34:21.364Z,12.40
2019-06-08T22:38:26.252Z,12.29
2019-06-08T22:42:31.149Z,12.16
2019-06-08T22:46:37.557Z,12.23
2019-06-08T22:50:42.634Z,12.22
2019-06-08T22:54:47.693Z,12.22
2019-06-08T22:58:54.255Z,12.18
2019-06-08T23:03:02.267Z,12.16
2019-06-08T23:07:06.973Z,12.11
2019-06-08T23:11:12.455Z,11.92
2019-06-08T23:15:18.374Z,11.66
2019-06-08T23:19:26.304Z,11.67
2019-06-08T23:23:29.994Z,11.67
2019-06-08T23:27:34.895Z,11.56
2019-06-08T23:31:39.793Z,11.33
2019-06-08T23:36:27.466Z,11.19
2019-06-08T23:39:51.716Z,11.00
2019-06-08T23:43:57.457Z,10.95
2019-06-08T23:48:02.833Z,11.02
2019-06-08T23:52:10.420Z,11.11
2019-06-08T23:56:14.518Z,10.93
